sensor_id;sensor_type;location;lat;lon;timestamp;P1;durP1;ratioP1;P2;durP2;ratioP2
60851;SDS011;48553;50.766;2.900;2022-12-18T00:00:55;41.95;;;14.20;;
60851;SDS011;48553;50.766;2.900;2022-12-18T00:03:55;45.53;;;14.25;;
60851;SDS011;48553;50.766;2.900;2022-12-18T00:06:56;46.75;;;15.00;;
60851;SDS011;48553;50.766;2.900;2022-12-18T00:09:57;41.60;;;15.18;;
60851;SDS011;48553;50.766;2.900;2022-12-18T00:12:57;46.13;;;15.00;;
60851;SDS011;48553;50.766;2.900;2022-12-18T00:16:02;41.13;;;15.00;;
60851;SDS011;48553;50.766;2.900;2022-12-18T00:19:04;38.75;;;14.07;;
60851;SDS011;48553;50.766;2.900;2022-12-18T00:22:05;45.55;;;15.63;;
60851;SDS011;48553;50.766;2.900;2022-12-18T00:25:06;40.13;;;13.82;;
60851;SDS011;48553;50.766;2.900;2022-12-18T00:28:07;41.13;;;14.00;;
60851;SDS011;48553;50.766;2.900;2022-12-18T00:31:08;49.03;;;15.25;;
60851;SDS011;48553;50.766;2.900;2022-12-18T00:34:13;48.75;;;15.05;;
60851;SDS011;48553;50.766;2.900;2022-12-18T00:37:14;44.33;;;14.70;;
60851;SDS011;48553;50.766;2.900;2022-12-18T00:40:14;43.45;;;13.98;;
60851;SDS011;48553;50.766;2.900;2022-12-18T00:43:15;46.30;;;14.52;;
60851;SDS011;48553;50.766;2.900;2022-12-18T00:46:15;45.28;;;15.63;;
60851;SDS011;48553;50.766;2.900;2022-12-18T00:49:16;46.67;;;14.95;;
60851;SDS011;48553;50.766;2.900;2022-12-18T00:52:19;47.13;;;15.10;;
60851;SDS011;48553;50.766;2.900;2022-12-18T00:55:19;46.05;;;15.13;;
60851;SDS011;48553;50.766;2.900;2022-12-18T00:58:20;46.85;;;14.00;;
60851;SDS011;48553;50.766;2.900;2022-12-18T01:01:20;37.95;;;13.73;;
60851;SDS011;48553;50.766;2.900;2022-12-18T01:04:20;40.53;;;14.55;;
60851;SDS011;48553;50.766;2.900;2022-12-18T01:07:21;46.22;;;14.77;;
60851;SDS011;48553;50.766;2.900;2022-12-18T01:10:22;45.08;;;14.95;;
60851;SDS011;48553;50.766;2.900;2022-12-18T01:13:22;46.42;;;15.77;;
60851;SDS011;48553;50.766;2.900;2022-12-18T01:16:23;47.42;;;15.30;;
60851;SDS011;48553;50.766;2.900;2022-12-18T01:19:23;42.55;;;14.73;;
60851;SDS011;48553;50.766;2.900;2022-12-18T01:22:24;50.05;;;15.60;;
60851;SDS011;48553;50.766;2.900;2022-12-18T01:25:24;39.00;;;14.57;;
60851;SDS011;48553;50.766;2.900;2022-12-18T01:28:25;44.78;;;15.13;;
60851;SDS011;48553;50.766;2.900;2022-12-18T01:31:26;47.03;;;15.65;;
60851;SDS011;48553;50.766;2.900;2022-12-18T01:34:28;45.17;;;14.93;;
60851;SDS011;48553;50.766;2.900;2022-12-18T01:37:28;46.15;;;15.73;;
60851;SDS011;48553;50.766;2.900;2022-12-18T01:40:29;41.45;;;14.95;;
60851;SDS011;48553;50.766;2.900;2022-12-18T01:46:43;45.30;;;15.90;;
60851;SDS011;48553;50.766;2.900;2022-12-18T01:49:43;47.25;;;15.27;;
60851;SDS011;48553;50.766;2.900;2022-12-18T01:52:45;48.60;;;15.35;;
60851;SDS011;48553;50.766;2.900;2022-12-18T01:55:52;45.17;;;15.27;;
60851;SDS011;48553;50.766;2.900;2022-12-18T01:59:02;44.88;;;15.57;;
60851;SDS011;48553;50.766;2.900;2022-12-18T02:02:05;42.17;;;14.35;;
60851;SDS011;48553;50.766;2.900;2022-12-18T02:05:07;45.92;;;14.85;;
60851;SDS011;48553;50.766;2.900;2022-12-18T02:15:16;41.67;;;14.95;;
60851;SDS011;48553;50.766;2.900;2022-12-18T02:18:35;42.45;;;14.95;;
60851;SDS011;48553;50.766;2.900;2022-12-18T02:24:53;43.88;;;14.98;;
60851;SDS011;48553;50.766;2.900;2022-12-18T02:28:01;41.15;;;14.88;;
60851;SDS011;48553;50.766;2.900;2022-12-18T02:34:08;43.45;;;14.45;;
60851;SDS011;48553;50.766;2.900;2022-12-18T02:37:11;44.78;;;14.35;;
60851;SDS011;48553;50.766;2.900;2022-12-18T02:40:15;43.63;;;15.15;;
60851;SDS011;48553;50.766;2.900;2022-12-18T02:43:18;37.88;;;14.35;;
60851;SDS011;48553;50.766;2.900;2022-12-18T02:46:24;39.65;;;15.18;;
60851;SDS011;48553;50.766;2.900;2022-12-18T02:58:58;38.00;;;14.50;;
60851;SDS011;48553;50.766;2.900;2022-12-18T03:02:07;41.67;;;15.00;;
60851;SDS011;48553;50.766;2.900;2022-12-18T03:05:30;39.85;;;14.18;;
60851;SDS011;48553;50.766;2.900;2022-12-18T03:08:37;39.17;;;14.20;;
60851;SDS011;48553;50.766;2.900;2022-12-18T03:11:42;39.67;;;14.40;;
60851;SDS011;48553;50.766;2.900;2022-12-18T03:15:10;38.10;;;14.27;;
60851;SDS011;48553;50.766;2.900;2022-12-18T03:18:24;37.03;;;14.38;;
60851;SDS011;48553;50.766;2.900;2022-12-18T03:21:33;37.92;;;14.27;;
60851;SDS011;48553;50.766;2.900;2022-12-18T03:24:40;41.33;;;13.88;;
60851;SDS011;48553;50.766;2.900;2022-12-18T03:27:43;37.38;;;13.98;;
60851;SDS011;48553;50.766;2.900;2022-12-18T03:30:49;35.38;;;13.90;;
60851;SDS011;48553;50.766;2.900;2022-12-18T03:33:54;41.70;;;14.88;;
60851;SDS011;48553;50.766;2.900;2022-12-18T03:36:57;36.92;;;14.70;;
60851;SDS011;48553;50.766;2.900;2022-12-18T03:39:58;38.92;;;14.07;;
60851;SDS011;48553;50.766;2.900;2022-12-18T03:43:00;39.47;;;14.95;;
60851;SDS011;48553;50.766;2.900;2022-12-18T03:46:20;34.08;;;13.68;;
60851;SDS011;48553;50.766;2.900;2022-12-18T03:49:53;36.30;;;13.85;;
60851;SDS011;48553;50.766;2.900;2022-12-18T03:53:20;36.28;;;14.45;;
60851;SDS011;48553;50.766;2.900;2022-12-18T03:56:29;36.08;;;13.88;;
60851;SDS011;48553;50.766;2.900;2022-12-18T03:59:33;41.88;;;14.70;;
60851;SDS011;48553;50.766;2.900;2022-12-18T04:02:35;33.78;;;13.20;;
60851;SDS011;48553;50.766;2.900;2022-12-18T04:05:40;37.85;;;14.50;;
60851;SDS011;48553;50.766;2.900;2022-12-18T04:08:42;38.15;;;14.30;;
60851;SDS011;48553;50.766;2.900;2022-12-18T04:11:43;36.90;;;13.52;;
60851;SDS011;48553;50.766;2.900;2022-12-18T04:14:44;37.53;;;14.43;;
60851;SDS011;48553;50.766;2.900;2022-12-18T04:17:48;36.20;;;14.35;;
60851;SDS011;48553;50.766;2.900;2022-12-18T04:20:49;42.50;;;15.25;;
60851;SDS011;48553;50.766;2.900;2022-12-18T04:23:50;40.85;;;14.68;;
60851;SDS011;48553;50.766;2.900;2022-12-18T04:26:50;40.40;;;14.75;;
60851;SDS011;48553;50.766;2.900;2022-12-18T04:29:51;36.47;;;14.05;;
60851;SDS011;48553;50.766;2.900;2022-12-18T04:32:51;39.40;;;14.30;;
60851;SDS011;48553;50.766;2.900;2022-12-18T04:35:51;35.45;;;13.73;;
60851;SDS011;48553;50.766;2.900;2022-12-18T04:38:52;38.95;;;14.07;;
60851;SDS011;48553;50.766;2.900;2022-12-18T04:41:52;36.33;;;13.43;;
60851;SDS011;48553;50.766;2.900;2022-12-18T04:44:53;36.05;;;13.07;;
60851;SDS011;48553;50.766;2.900;2022-12-18T04:47:53;33.15;;;13.00;;
60851;SDS011;48553;50.766;2.900;2022-12-18T04:50:53;34.17;;;12.98;;
60851;SDS011;48553;50.766;2.900;2022-12-18T04:53:54;31.58;;;11.77;;
60851;SDS011;48553;50.766;2.900;2022-12-18T04:56:54;30.83;;;11.18;;
60851;SDS011;48553;50.766;2.900;2022-12-18T04:59:54;31.30;;;12.25;;
60851;SDS011;48553;50.766;2.900;2022-12-18T05:02:55;32.55;;;12.63;;
60851;SDS011;48553;50.766;2.900;2022-12-18T05:05:55;29.63;;;12.00;;
60851;SDS011;48553;50.766;2.900;2022-12-18T05:08:56;29.20;;;11.25;;
60851;SDS011;48553;50.766;2.900;2022-12-18T05:11:56;29.20;;;11.60;;
60851;SDS011;48553;50.766;2.900;2022-12-18T05:14:57;30.80;;;12.18;;
60851;SDS011;48553;50.766;2.900;2022-12-18T05:17:58;31.20;;;11.60;;
60851;SDS011;48553;50.766;2.900;2022-12-18T05:20:59;32.10;;;12.40;;
60851;SDS011;48553;50.766;2.900;2022-12-18T05:23:59;33.83;;;12.30;;
60851;SDS011;48553;50.766;2.900;2022-12-18T05:27:00;30.58;;;11.52;;
60851;SDS011;48553;50.766;2.900;2022-12-18T05:30:00;33.33;;;11.98;;
60851;SDS011;48553;50.766;2.900;2022-12-18T05:33:00;31.00;;;11.13;;
60851;SDS011;48553;50.766;2.900;2022-12-18T05:36:03;31.08;;;12.27;;
60851;SDS011;48553;50.766;2.900;2022-12-18T05:39:06;31.80;;;11.98;;
60851;SDS011;48553;50.766;2.900;2022-12-18T05:42:06;28.05;;;11.25;;
60851;SDS011;48553;50.766;2.900;2022-12-18T05:45:07;31.33;;;12.60;;
60851;SDS011;48553;50.766;2.900;2022-12-18T05:48:08;28.73;;;11.88;;
60851;SDS011;48553;50.766;2.900;2022-12-18T05:51:12;28.70;;;11.55;;
60851;SDS011;48553;50.766;2.900;2022-12-18T05:54:15;28.40;;;11.52;;
60851;SDS011;48553;50.766;2.900;2022-12-18T05:57:16;25.45;;;10.43;;
60851;SDS011;48553;50.766;2.900;2022-12-18T06:00:16;30.35;;;11.82;;
60851;SDS011;48553;50.766;2.900;2022-12-18T06:03:17;28.73;;;11.35;;
60851;SDS011;48553;50.766;2.900;2022-12-18T06:06:21;28.30;;;11.55;;
60851;SDS011;48553;50.766;2.900;2022-12-18T06:09:24;31.70;;;11.23;;
60851;SDS011;48553;50.766;2.900;2022-12-18T06:12:24;26.85;;;11.00;;
60851;SDS011;48553;50.766;2.900;2022-12-18T06:15:25;26.20;;;10.98;;
60851;SDS011;48553;50.766;2.900;2022-12-18T06:18:25;26.73;;;10.55;;
60851;SDS011;48553;50.766;2.900;2022-12-18T06:21:26;26.05;;;10.18;;
60851;SDS011;48553;50.766;2.900;2022-12-18T06:24:27;26.48;;;10.80;;
60851;SDS011;48553;50.766;2.900;2022-12-18T06:27:27;25.33;;;9.93;;
60851;SDS011;48553;50.766;2.900;2022-12-18T06:30:28;27.17;;;10.15;;
60851;SDS011;48553;50.766;2.900;2022-12-18T06:33:28;28.08;;;10.57;;
60851;SDS011;48553;50.766;2.900;2022-12-18T06:36:29;27.40;;;10.15;;
60851;SDS011;48553;50.766;2.900;2022-12-18T06:39:30;26.88;;;9.65;;
60851;SDS011;48553;50.766;2.900;2022-12-18T06:42:30;25.80;;;10.10;;
60851;SDS011;48553;50.766;2.900;2022-12-18T06:45:31;23.98;;;10.55;;
60851;SDS011;48553;50.766;2.900;2022-12-18T06:48:32;26.75;;;10.18;;
60851;SDS011;48553;50.766;2.900;2022-12-18T06:51:32;26.50;;;10.98;;
60851;SDS011;48553;50.766;2.900;2022-12-18T06:54:33;26.10;;;10.10;;
60851;SDS011;48553;50.766;2.900;2022-12-18T06:57:33;24.55;;;9.32;;
60851;SDS011;48553;50.766;2.900;2022-12-18T07:00:34;28.40;;;10.23;;
60851;SDS011;48553;50.766;2.900;2022-12-18T07:03:34;27.25;;;10.75;;
60851;SDS011;48553;50.766;2.900;2022-12-18T07:06:35;24.15;;;10.02;;
60851;SDS011;48553;50.766;2.900;2022-12-18T07:09:36;27.30;;;10.10;;
60851;SDS011;48553;50.766;2.900;2022-12-18T07:12:36;27.67;;;10.10;;
60851;SDS011;48553;50.766;2.900;2022-12-18T07:15:37;25.33;;;9.75;;
60851;SDS011;48553;50.766;2.900;2022-12-18T07:18:37;23.08;;;9.43;;
60851;SDS011;48553;50.766;2.900;2022-12-18T07:21:37;23.23;;;9.32;;
60851;SDS011;48553;50.766;2.900;2022-12-18T07:24:38;24.05;;;9.50;;
60851;SDS011;48553;50.766;2.900;2022-12-18T07:27:38;24.67;;;9.20;;
60851;SDS011;48553;50.766;2.900;2022-12-18T07:30:39;23.13;;;9.50;;
60851;SDS011;48553;50.766;2.900;2022-12-18T07:33:39;23.77;;;8.60;;
60851;SDS011;48553;50.766;2.900;2022-12-18T07:36:40;20.60;;;8.82;;
60851;SDS011;48553;50.766;2.900;2022-12-18T07:39:41;22.50;;;8.65;;
60851;SDS011;48553;50.766;2.900;2022-12-18T07:42:41;22.02;;;8.95;;
60851;SDS011;48553;50.766;2.900;2022-12-18T07:45:42;22.30;;;8.88;;
60851;SDS011;48553;50.766;2.900;2022-12-18T07:48:43;22.63;;;8.65;;
60851;SDS011;48553;50.766;2.900;2022-12-18T07:51:44;18.88;;;8.18;;
60851;SDS011;48553;50.766;2.900;2022-12-18T07:54:48;21.08;;;8.27;;
60851;SDS011;48553;50.766;2.900;2022-12-18T07:57:49;24.40;;;8.23;;
60851;SDS011;48553;50.766;2.900;2022-12-18T08:00:50;22.92;;;8.15;;
60851;SDS011;48553;50.766;2.900;2022-12-18T08:03:52;17.35;;;7.57;;
60851;SDS011;48553;50.766;2.900;2022-12-18T08:06:52;19.55;;;7.97;;
60851;SDS011;48553;50.766;2.900;2022-12-18T08:09:53;18.35;;;7.90;;
60851;SDS011;48553;50.766;2.900;2022-12-18T08:12:53;19.08;;;8.07;;
60851;SDS011;48553;50.766;2.900;2022-12-18T08:15:57;19.02;;;8.80;;
60851;SDS011;48553;50.766;2.900;2022-12-18T08:18:59;20.35;;;8.90;;
60851;SDS011;48553;50.766;2.900;2022-12-18T08:21:59;20.10;;;8.82;;
60851;SDS011;48553;50.766;2.900;2022-12-18T08:25:00;20.65;;;8.45;;
60851;SDS011;48553;50.766;2.900;2022-12-18T08:28:00;18.17;;;8.43;;
60851;SDS011;48553;50.766;2.900;2022-12-18T08:31:01;21.67;;;8.48;;
60851;SDS011;48553;50.766;2.900;2022-12-18T08:34:01;21.63;;;9.23;;
60851;SDS011;48553;50.766;2.900;2022-12-18T08:37:02;20.88;;;8.45;;
60851;SDS011;48553;50.766;2.900;2022-12-18T08:40:02;22.73;;;9.65;;
60851;SDS011;48553;50.766;2.900;2022-12-18T08:43:03;24.75;;;9.75;;
60851;SDS011;48553;50.766;2.900;2022-12-18T08:46:23;25.08;;;9.43;;
60851;SDS011;48553;50.766;2.900;2022-12-18T08:49:25;21.83;;;9.77;;
60851;SDS011;48553;50.766;2.900;2022-12-18T08:52:25;26.40;;;9.48;;
60851;SDS011;48553;50.766;2.900;2022-12-18T08:55:26;23.65;;;10.15;;
60851;SDS011;48553;50.766;2.900;2022-12-18T08:58:26;22.20;;;10.02;;
60851;SDS011;48553;50.766;2.900;2022-12-18T09:01:27;21.48;;;9.77;;
60851;SDS011;48553;50.766;2.900;2022-12-18T09:04:27;23.30;;;10.43;;
60851;SDS011;48553;50.766;2.900;2022-12-18T09:07:28;26.85;;;10.77;;
60851;SDS011;48553;50.766;2.900;2022-12-18T09:10:28;25.45;;;10.73;;
60851;SDS011;48553;50.766;2.900;2022-12-18T09:13:29;23.70;;;10.00;;
60851;SDS011;48553;50.766;2.900;2022-12-18T09:16:29;22.75;;;10.32;;
60851;SDS011;48553;50.766;2.900;2022-12-18T09:19:31;24.00;;;10.15;;
60851;SDS011;48553;50.766;2.900;2022-12-18T09:22:31;28.63;;;10.48;;
60851;SDS011;48553;50.766;2.900;2022-12-18T09:25:32;26.50;;;10.40;;
60851;SDS011;48553;50.766;2.900;2022-12-18T09:28:35;24.77;;;11.02;;
60851;SDS011;48553;50.766;2.900;2022-12-18T09:31:36;27.40;;;11.60;;
60851;SDS011;48553;50.766;2.900;2022-12-18T09:34:38;27.40;;;11.10;;
60851;SDS011;48553;50.766;2.900;2022-12-18T09:37:38;26.98;;;10.95;;
60851;SDS011;48553;50.766;2.900;2022-12-18T09:40:43;27.90;;;10.85;;
60851;SDS011;48553;50.766;2.900;2022-12-18T09:43:48;28.95;;;11.27;;
60851;SDS011;48553;50.766;2.900;2022-12-18T09:50:31;27.92;;;11.10;;
60851;SDS011;48553;50.766;2.900;2022-12-18T09:53:35;28.70;;;11.65;;
60851;SDS011;48553;50.766;2.900;2022-12-18T09:56:41;26.55;;;11.40;;
60851;SDS011;48553;50.766;2.900;2022-12-18T09:59:44;27.77;;;11.10;;
60851;SDS011;48553;50.766;2.900;2022-12-18T10:02:50;29.02;;;12.40;;
60851;SDS011;48553;50.766;2.900;2022-12-18T10:06:37;27.55;;;11.85;;
60851;SDS011;48553;50.766;2.900;2022-12-18T10:09:45;26.95;;;11.38;;
60851;SDS011;48553;50.766;2.900;2022-12-18T10:13:09;25.52;;;12.05;;
60851;SDS011;48553;50.766;2.900;2022-12-18T10:16:29;32.22;;;12.85;;
60851;SDS011;48553;50.766;2.900;2022-12-18T10:19:45;28.60;;;11.68;;
60851;SDS011;48553;50.766;2.900;2022-12-18T10:23:00;32.33;;;12.43;;
60851;SDS011;48553;50.766;2.900;2022-12-18T10:26:05;27.58;;;12.30;;
60851;SDS011;48553;50.766;2.900;2022-12-18T10:29:09;29.80;;;12.95;;
60851;SDS011;48553;50.766;2.900;2022-12-18T10:32:20;32.20;;;12.70;;
60851;SDS011;48553;50.766;2.900;2022-12-18T10:35:24;29.98;;;12.40;;
60851;SDS011;48553;50.766;2.900;2022-12-18T10:38:27;35.38;;;13.13;;
60851;SDS011;48553;50.766;2.900;2022-12-18T10:41:29;31.75;;;12.52;;
60851;SDS011;48553;50.766;2.900;2022-12-18T10:44:30;31.40;;;13.02;;
60851;SDS011;48553;50.766;2.900;2022-12-18T10:47:31;31.20;;;12.43;;
60851;SDS011;48553;50.766;2.900;2022-12-18T10:50:35;31.77;;;12.65;;
60851;SDS011;48553;50.766;2.900;2022-12-18T10:53:37;32.58;;;13.02;;
60851;SDS011;48553;50.766;2.900;2022-12-18T10:56:39;33.38;;;12.77;;
60851;SDS011;48553;50.766;2.900;2022-12-18T10:59:58;31.80;;;13.10;;
60851;SDS011;48553;50.766;2.900;2022-12-18T11:03:01;33.38;;;13.20;;
60851;SDS011;48553;50.766;2.900;2022-12-18T11:06:03;34.35;;;13.32;;
60851;SDS011;48553;50.766;2.900;2022-12-18T11:09:08;32.50;;;12.93;;
60851;SDS011;48553;50.766;2.900;2022-12-18T11:12:19;31.33;;;12.40;;
60851;SDS011;48553;50.766;2.900;2022-12-18T11:15:24;30.55;;;13.20;;
60851;SDS011;48553;50.766;2.900;2022-12-18T11:21:38;31.58;;;13.07;;
60851;SDS011;48553;50.766;2.900;2022-12-18T11:24:40;36.08;;;13.38;;
60851;SDS011;48553;50.766;2.900;2022-12-18T11:27:41;31.70;;;13.63;;
60851;SDS011;48553;50.766;2.900;2022-12-18T11:30:49;33.00;;;13.15;;
60851;SDS011;48553;50.766;2.900;2022-12-18T11:37:15;33.25;;;12.85;;
60851;SDS011;48553;50.766;2.900;2022-12-18T11:40:23;35.70;;;13.32;;
60851;SDS011;48553;50.766;2.900;2022-12-18T11:43:34;35.33;;;13.50;;
60851;SDS011;48553;50.766;2.900;2022-12-18T11:46:46;37.33;;;13.90;;
60851;SDS011;48553;50.766;2.900;2022-12-18T11:49:51;30.65;;;13.18;;
60851;SDS011;48553;50.766;2.900;2022-12-18T11:52:54;35.75;;;13.50;;
60851;SDS011;48553;50.766;2.900;2022-12-18T11:56:01;35.20;;;14.02;;
60851;SDS011;48553;50.766;2.900;2022-12-18T11:59:28;35.13;;;13.80;;
60851;SDS011;48553;50.766;2.900;2022-12-18T12:19:57;35.15;;;14.15;;
60851;SDS011;48553;50.766;2.900;2022-12-18T12:23:20;34.35;;;13.48;;
60851;SDS011;48553;50.766;2.900;2022-12-18T12:26:38;37.83;;;14.02;;
60851;SDS011;48553;50.766;2.900;2022-12-18T12:36:17;36.25;;;14.35;;
60851;SDS011;48553;50.766;2.900;2022-12-18T12:39:39;37.70;;;13.82;;
60851;SDS011;48553;50.766;2.900;2022-12-18T12:42:47;33.50;;;12.60;;
60851;SDS011;48553;50.766;2.900;2022-12-18T12:46:13;33.65;;;13.45;;
60851;SDS011;48553;50.766;2.900;2022-12-18T12:49:18;34.80;;;13.73;;
60851;SDS011;48553;50.766;2.900;2022-12-18T12:52:42;35.80;;;13.52;;
60851;SDS011;48553;50.766;2.900;2022-12-18T12:55:46;37.75;;;14.05;;
60851;SDS011;48553;50.766;2.900;2022-12-18T12:59:06;32.90;;;13.00;;
60851;SDS011;48553;50.766;2.900;2022-12-18T13:05:48;35.00;;;13.13;;
60851;SDS011;48553;50.766;2.900;2022-12-18T13:08:54;36.97;;;13.40;;
60851;SDS011;48553;50.766;2.900;2022-12-18T13:12:03;37.67;;;13.93;;
60851;SDS011;48553;50.766;2.900;2022-12-18T13:16:10;35.83;;;12.82;;
60851;SDS011;48553;50.766;2.900;2022-12-18T13:19:18;35.00;;;12.60;;
60851;SDS011;48553;50.766;2.900;2022-12-18T13:22:23;38.47;;;13.52;;
60851;SDS011;48553;50.766;2.900;2022-12-18T13:25:35;36.67;;;14.40;;
60851;SDS011;48553;50.766;2.900;2022-12-18T13:41:34;35.67;;;13.63;;
60851;SDS011;48553;50.766;2.900;2022-12-18T13:44:36;38.38;;;13.88;;
60851;SDS011;48553;50.766;2.900;2022-12-18T13:47:36;36.75;;;14.70;;
60851;SDS011;48553;50.766;2.900;2022-12-18T13:50:37;33.85;;;13.52;;
60851;SDS011;48553;50.766;2.900;2022-12-18T13:53:42;36.05;;;13.85;;
60851;SDS011;48553;50.766;2.900;2022-12-18T13:56:47;33.53;;;13.02;;
60851;SDS011;48553;50.766;2.900;2022-12-18T13:59:48;36.45;;;13.48;;
60851;SDS011;48553;50.766;2.900;2022-12-18T14:02:49;35.13;;;13.32;;
60851;SDS011;48553;50.766;2.900;2022-12-18T14:06:08;35.92;;;12.85;;
60851;SDS011;48553;50.766;2.900;2022-12-18T14:09:13;33.35;;;13.30;;
60851;SDS011;48553;50.766;2.900;2022-12-18T14:12:16;35.17;;;13.68;;
60851;SDS011;48553;50.766;2.900;2022-12-18T14:15:40;33.42;;;13.50;;
60851;SDS011;48553;50.766;2.900;2022-12-18T14:18:55;32.53;;;12.50;;
60851;SDS011;48553;50.766;2.900;2022-12-18T14:21:58;32.72;;;13.48;;
60851;SDS011;48553;50.766;2.900;2022-12-18T14:25:05;38.95;;;13.93;;
60851;SDS011;48553;50.766;2.900;2022-12-18T14:28:14;35.50;;;13.07;;
60851;SDS011;48553;50.766;2.900;2022-12-18T14:31:22;35.90;;;12.70;;
60851;SDS011;48553;50.766;2.900;2022-12-18T14:34:27;32.55;;;13.30;;
60851;SDS011;48553;50.766;2.900;2022-12-18T14:37:27;37.33;;;12.90;;
60851;SDS011;48553;50.766;2.900;2022-12-18T14:40:27;36.90;;;13.45;;
60851;SDS011;48553;50.766;2.900;2022-12-18T14:43:29;33.05;;;12.85;;
60851;SDS011;48553;50.766;2.900;2022-12-18T14:49:36;35.43;;;13.57;;
60851;SDS011;48553;50.766;2.900;2022-12-18T14:52:38;33.10;;;12.98;;
60851;SDS011;48553;50.766;2.900;2022-12-18T14:55:38;30.98;;;12.55;;
60851;SDS011;48553;50.766;2.900;2022-12-18T14:58:48;36.22;;;13.18;;
60851;SDS011;48553;50.766;2.900;2022-12-18T15:05:17;32.15;;;12.70;;
60851;SDS011;48553;50.766;2.900;2022-12-18T15:08:28;36.10;;;13.10;;
60851;SDS011;48553;50.766;2.900;2022-12-18T15:11:35;37.63;;;13.02;;
60851;SDS011;48553;50.766;2.900;2022-12-18T15:14:39;37.42;;;12.95;;
60851;SDS011;48553;50.766;2.900;2022-12-18T15:17:41;35.17;;;12.80;;
60851;SDS011;48553;50.766;2.900;2022-12-18T15:26:44;36.00;;;13.48;;
60851;SDS011;48553;50.766;2.900;2022-12-18T15:29:58;35.75;;;13.77;;
60851;SDS011;48553;50.766;2.900;2022-12-18T15:33:18;31.80;;;13.02;;
60851;SDS011;48553;50.766;2.900;2022-12-18T15:36:25;39.13;;;12.95;;
60851;SDS011;48553;50.766;2.900;2022-12-18T15:42:30;40.10;;;12.75;;
60851;SDS011;48553;50.766;2.900;2022-12-18T15:45:49;31.92;;;12.65;;
60851;SDS011;48553;50.766;2.900;2022-12-18T15:48:50;36.97;;;13.13;;
60851;SDS011;48553;50.766;2.900;2022-12-18T15:51:53;34.00;;;12.18;;
60851;SDS011;48553;50.766;2.900;2022-12-18T15:54:56;41.25;;;13.80;;
60851;SDS011;48553;50.766;2.900;2022-12-18T15:58:17;37.95;;;13.02;;
60851;SDS011;48553;50.766;2.900;2022-12-18T16:01:20;36.03;;;12.52;;
60851;SDS011;48553;50.766;2.900;2022-12-18T16:04:22;38.42;;;12.43;;
60851;SDS011;48553;50.766;2.900;2022-12-18T16:07:24;36.17;;;13.00;;
60851;SDS011;48553;50.766;2.900;2022-12-18T16:10:25;34.05;;;12.40;;
60851;SDS011;48553;50.766;2.900;2022-12-18T16:13:26;34.42;;;12.77;;
60851;SDS011;48553;50.766;2.900;2022-12-18T16:16:27;33.67;;;11.98;;
60851;SDS011;48553;50.766;2.900;2022-12-18T16:19:27;34.22;;;12.13;;
60851;SDS011;48553;50.766;2.900;2022-12-18T16:22:29;34.88;;;13.25;;
60851;SDS011;48553;50.766;2.900;2022-12-18T16:25:30;32.05;;;11.98;;
60851;SDS011;48553;50.766;2.900;2022-12-18T16:28:30;37.03;;;13.02;;
60851;SDS011;48553;50.766;2.900;2022-12-18T16:31:31;34.20;;;12.10;;
60851;SDS011;48553;50.766;2.900;2022-12-18T16:34:32;37.65;;;13.00;;
60851;SDS011;48553;50.766;2.900;2022-12-18T16:37:34;35.05;;;12.60;;
60851;SDS011;48553;50.766;2.900;2022-12-18T16:40:34;33.90;;;11.85;;
60851;SDS011;48553;50.766;2.900;2022-12-18T16:43:54;33.42;;;11.75;;
60851;SDS011;48553;50.766;2.900;2022-12-18T16:46:55;33.53;;;12.27;;
60851;SDS011;48553;50.766;2.900;2022-12-18T16:50:02;39.03;;;13.02;;
60851;SDS011;48553;50.766;2.900;2022-12-18T16:53:03;36.10;;;12.20;;
60851;SDS011;48553;50.766;2.900;2022-12-18T16:56:03;34.55;;;11.88;;
60851;SDS011;48553;50.766;2.900;2022-12-18T16:59:04;34.03;;;11.90;;
60851;SDS011;48553;50.766;2.900;2022-12-18T17:02:05;31.25;;;12.00;;
60851;SDS011;48553;50.766;2.900;2022-12-18T17:05:10;37.40;;;12.43;;
60851;SDS011;48553;50.766;2.900;2022-12-18T17:08:11;32.10;;;11.55;;
60851;SDS011;48553;50.766;2.900;2022-12-18T17:11:11;30.90;;;11.98;;
60851;SDS011;48553;50.766;2.900;2022-12-18T17:14:13;35.25;;;11.48;;
60851;SDS011;48553;50.766;2.900;2022-12-18T17:17:16;31.92;;;12.13;;
60851;SDS011;48553;50.766;2.900;2022-12-18T17:20:16;31.52;;;12.20;;
60851;SDS011;48553;50.766;2.900;2022-12-18T17:23:17;27.95;;;11.40;;
60851;SDS011;48553;50.766;2.900;2022-12-18T17:26:17;36.05;;;12.52;;
60851;SDS011;48553;50.766;2.900;2022-12-18T17:29:18;37.97;;;12.15;;
60851;SDS011;48553;50.766;2.900;2022-12-18T17:32:19;35.83;;;12.25;;
60851;SDS011;48553;50.766;2.900;2022-12-18T17:35:19;33.38;;;11.82;;
60851;SDS011;48553;50.766;2.900;2022-12-18T17:38:20;36.20;;;12.43;;
60851;SDS011;48553;50.766;2.900;2022-12-18T17:41:20;34.63;;;11.77;;
60851;SDS011;48553;50.766;2.900;2022-12-18T17:44:22;34.08;;;12.32;;
60851;SDS011;48553;50.766;2.900;2022-12-18T17:47:22;37.65;;;12.75;;
60851;SDS011;48553;50.766;2.900;2022-12-18T17:50:23;33.90;;;12.13;;
60851;SDS011;48553;50.766;2.900;2022-12-18T17:53:23;36.85;;;12.27;;
60851;SDS011;48553;50.766;2.900;2022-12-18T17:56:25;35.47;;;12.20;;
60851;SDS011;48553;50.766;2.900;2022-12-18T17:59:25;33.35;;;12.70;;
60851;SDS011;48553;50.766;2.900;2022-12-18T18:02:26;31.20;;;11.13;;
60851;SDS011;48553;50.766;2.900;2022-12-18T18:05:26;34.67;;;12.20;;
60851;SDS011;48553;50.766;2.900;2022-12-18T18:08:27;34.88;;;12.25;;
60851;SDS011;48553;50.766;2.900;2022-12-18T18:11:28;33.35;;;12.18;;
60851;SDS011;48553;50.766;2.900;2022-12-18T18:14:46;36.60;;;13.57;;
60851;SDS011;48553;50.766;2.900;2022-12-18T18:17:47;37.72;;;12.63;;
60851;SDS011;48553;50.766;2.900;2022-12-18T18:20:47;36.83;;;13.68;;
60851;SDS011;48553;50.766;2.900;2022-12-18T18:23:48;34.90;;;12.32;;
60851;SDS011;48553;50.766;2.900;2022-12-18T18:26:48;34.95;;;12.85;;
60851;SDS011;48553;50.766;2.900;2022-12-18T18:29:49;33.83;;;12.80;;
60851;SDS011;48553;50.766;2.900;2022-12-18T18:32:50;36.72;;;12.20;;
60851;SDS011;48553;50.766;2.900;2022-12-18T18:35:50;34.83;;;12.07;;
60851;SDS011;48553;50.766;2.900;2022-12-18T18:38:50;31.95;;;12.65;;
60851;SDS011;48553;50.766;2.900;2022-12-18T18:41:51;34.10;;;11.98;;
60851;SDS011;48553;50.766;2.900;2022-12-18T18:44:52;35.70;;;12.85;;
60851;SDS011;48553;50.766;2.900;2022-12-18T18:47:52;36.83;;;12.38;;
60851;SDS011;48553;50.766;2.900;2022-12-18T18:51:00;34.17;;;12.40;;
60851;SDS011;48553;50.766;2.900;2022-12-18T18:54:04;32.15;;;11.63;;
60851;SDS011;48553;50.766;2.900;2022-12-18T18:57:04;30.05;;;11.93;;
60851;SDS011;48553;50.766;2.900;2022-12-18T19:00:05;38.60;;;12.52;;
60851;SDS011;48553;50.766;2.900;2022-12-18T19:03:06;35.95;;;12.00;;
60851;SDS011;48553;50.766;2.900;2022-12-18T19:06:08;33.28;;;12.15;;
60851;SDS011;48553;50.766;2.900;2022-12-18T19:09:11;33.22;;;11.73;;
60851;SDS011;48553;50.766;2.900;2022-12-18T19:12:12;36.08;;;12.27;;
60851;SDS011;48553;50.766;2.900;2022-12-18T19:15:32;30.60;;;11.32;;
60851;SDS011;48553;50.766;2.900;2022-12-18T19:18:33;35.65;;;11.52;;
60851;SDS011;48553;50.766;2.900;2022-12-18T19:21:36;34.17;;;12.48;;
60851;SDS011;48553;50.766;2.900;2022-12-18T19:24:37;34.65;;;12.00;;
60851;SDS011;48553;50.766;2.900;2022-12-18T19:27:37;36.47;;;12.48;;
60851;SDS011;48553;50.766;2.900;2022-12-18T19:30:39;35.70;;;12.73;;